Time;durP1;ratioP1;P1;durP2;ratioP2;P2;SDS_P1;SDS_P2;PMS_P1;PMS_P2;Temp;Humidity;BMP_temperature;BMP_pressure;BME280_temperature;BME280_humidity;BME280_pressure;Samples;Min_cycle;Max_cycle;Signal;HPM_P1;HPM_P2
2023/09/20 00:02:16;;;;;;;7.15;2.25;;;34.20;4.70;;;;;;4970575;28;20195;-67
2023/09/20 00:04:47;;;;;;;6.05;2.45;;;34.30;2.20;;;;;;4974422;28;20225;-68
2023/09/20 00:07:15;;;;;;;9.63;2.42;;;33.90;1.00;;;;;;4974038;28;20652;-67
2023/09/20 00:09:42;;;;;;;14.90;3.00;;;33.90;1.00;;;;;;4973845;28;20587;-68
2023/09/20 00:12:10;;;;;;;17.15;2.88;;;34.20;1.00;;;;;;4973488;28;20653;-68
2023/09/20 00:14:37;;;;;;;8.25;2.40;;;34.00;1.00;;;;;;4956925;28;20533;-68
2023/09/20 00:17:05;;;;;;;8.80;2.47;;;34.00;1.00;;;;;;4956597;28;20183;-68
2023/09/20 00:19:32;;;;;;;16.73;2.58;;;34.00;1.00;;;;;;4974085;28;20203;-67
2023/09/20 00:21:59;;;;;;;13.80;2.97;;;34.10;1.00;;;;;;4973744;28;20672;-67
2023/09/20 00:24:27;;;;;;;18.13;3.03;;;33.70;1.00;;;;;;4973959;28;20176;-66
2023/09/20 00:26:54;;;;;;;16.88;3.00;;;33.70;1.00;;;;;;4956775;28;20191;-66
2023/09/20 00:29:24;;;;;;;12.13;3.38;;;33.90;1.00;;;;;;4974137;28;20277;-68
2023/09/20 00:31:52;;;;;;;7.30;2.92;;;33.80;1.00;;;;;;4973066;28;20271;-68
2023/09/20 00:34:19;;;;;;;10.70;2.85;;;34.00;1.00;;;;;;4973873;28;20187;-68
2023/09/20 00:36:46;;;;;;;13.82;2.88;;;34.20;1.00;;;;;;4973774;28;20171;-69
2023/09/20 00:39:14;;;;;;;8.95;2.58;;;34.30;1.00;;;;;;4972901;28;20736;-68
2023/09/20 00:41:41;;;;;;;9.77;2.58;;;34.10;1.00;;;;;;4972498;28;20262;-70
2023/09/20 00:44:08;;;;;;;10.55;2.88;;;34.10;1.00;;;;;;4973291;28;20214;-68
2023/09/20 00:46:38;;;;;;;4.00;2.28;;;34.30;1.00;;;;;;4972991;28;20183;-68
2023/09/20 00:49:06;;;;;;;7.68;2.47;;;34.40;1.00;;;;;;4969155;28;20373;-68
2023/09/20 00:51:34;;;;;;;14.27;2.83;;;34.10;1.00;;;;;;4964263;28;20179;-68
2023/09/20 00:54:04;;;;;;;5.97;2.60;;;33.90;1.00;;;;;;4973638;28;20186;-68
2023/09/20 00:56:32;;;;;;;6.78;2.58;;;34.30;1.00;;;;;;4973934;28;20672;-68
2023/09/20 00:59:06;;;;;;;13.05;2.70;;;34.00;1.00;;;;;;4973756;28;20182;-68
2023/09/20 01:01:34;;;;;;;10.05;3.38;;;34.20;1.00;;;;;;4973136;28;20194;-67
2023/09/20 01:07:24;;;;;;;8.63;2.65;;;34.30;1.00;;;;;;4973070;28;20198;-66
2023/09/20 01:09:52;;;;;;;9.18;3.05;;;34.60;1.00;;;;;;4969920;28;20305;-68
2023/09/20 01:12:19;;;;;;;13.75;3.17;;;34.60;1.00;;;;;;4974579;28;20187;-69
2023/09/20 01:14:47;;;;;;;8.70;2.88;;;34.80;1.00;;;;;;4974738;28;20184;-68
2023/09/20 01:17:14;;;;;;;6.50;2.83;;;34.90;1.00;;;;;;4974880;28;20629;-67
2023/09/20 01:19:41;;;;;;;7.82;2.22;;;34.80;1.00;;;;;;4974665;28;20223;-68
2023/09/20 01:22:08;;;;;;;6.05;2.58;;;34.60;1.00;;;;;;4974794;28;20636;-68
2023/09/20 01:24:37;;;;;;;11.07;3.10;;;34.70;1.00;;;;;;4974654;28;20737;-68
2023/09/20 01:27:05;;;;;;;8.77;2.63;;;35.00;1.00;;;;;;4974642;28;20180;-68
2023/09/20 01:29:34;;;;;;;6.22;2.50;;;35.20;1.00;;;;;;4974599;28;20222;-68
2023/09/20 01:32:03;;;;;;;6.05;2.58;;;35.00;1.00;;;;;;4974510;28;20172;-68
2023/09/20 01:34:31;;;;;;;4.30;2.83;;;35.30;1.00;;;;;;4957343;28;20270;-67
2023/09/20 01:36:59;;;;;;;9.38;2.63;;;35.30;1.00;;;;;;4974186;28;20186;-68
2023/09/20 01:39:27;;;;;;;10.13;2.60;;;35.20;1.00;;;;;;4956927;28;20265;-68
2023/09/20 01:41:56;;;;;;;9.13;2.60;;;35.20;1.00;;;;;;4974517;28;20187;-68
2023/09/20 01:44:24;;;;;;;5.13;2.17;;;35.40;1.00;;;;;;4974784;28;20187;-67
2023/09/20 01:46:52;;;;;;;7.15;2.92;;;35.70;1.00;;;;;;4974803;28;20278;-68
2023/09/20 01:49:21;;;;;;;8.13;3.17;;;36.10;1.00;;;;;;4974800;28;20202;-68
2023/09/20 01:51:48;;;;;;;9.32;2.97;;;35.90;1.00;;;;;;4958105;28;20233;-68
2023/09/20 01:57:37;;;;;;;11.35;3.08;;;35.90;1.00;;;;;;4974386;28;20226;-68
2023/09/20 02:00:24;;;;;;;19.35;4.20;;;35.80;1.00;;;;;;4974532;28;20215;-68
2023/09/20 02:02:53;;;;;;;16.85;3.08;;;36.00;1.00;;;;;;4974038;28;20193;-68
2023/09/20 02:05:25;;;;;;;17.92;2.53;;;35.80;1.00;;;;;;4974272;28;20258;-67
2023/09/20 02:11:14;;;;;;;13.77;3.10;;;36.00;1.00;;;;;;4972747;28;20254;-67
2023/09/20 02:13:42;;;;;;;7.07;2.88;;;35.40;1.00;;;;;;4974092;28;20183;-68
2023/09/20 02:16:10;;;;;;;2.60;2.10;;;35.30;1.00;;;;;;4974217;28;20176;-68
2023/09/20 02:18:38;;;;;;;9.77;2.63;;;35.70;1.00;;;;;;4973821;28;20179;-69
2023/09/20 02:21:07;;;;;;;18.85;3.53;;;35.70;1.00;;;;;;4973912;28;20226;-67
2023/09/20 02:23:56;;;;;;;10.57;3.13;;;35.80;1.00;;;;;;4973394;28;20215;-67
2023/09/20 02:26:23;;;;;;;7.32;2.75;;;35.90;1.00;;;;;;4973805;28;20215;-67
2023/09/20 02:28:51;;;;;;;6.85;2.65;;;36.30;1.00;;;;;;4973947;28;20176;-68
2023/09/20 02:31:18;;;;;;;5.57;2.47;;;36.90;1.00;;;;;;4973872;28;20178;-70
2023/09/20 02:33:48;;;;;;;7.40;2.85;;;36.70;1.00;;;;;;4974064;28;20179;-68
2023/09/20 02:36:16;;;;;;;5.35;2.25;;;36.60;1.00;;;;;;4974008;28;20175;-68
2023/09/20 02:38:44;;;;;;;11.35;2.90;;;36.50;1.00;;;;;;4973840;28;20172;-68
2023/09/20 02:41:31;;;;;;;9.30;2.78;;;36.20;1.00;;;;;;4973672;28;20198;-67
2023/09/20 02:43:59;;;;;;;6.88;2.25;;;36.30;1.00;;;;;;4973852;28;20175;-68
2023/09/20 02:46:26;;;;;;;6.90;2.50;;;36.10;1.00;;;;;;4973871;28;20214;-68
2023/09/20 02:48:54;;;;;;;10.20;2.72;;;36.40;1.00;;;;;;4973938;28;20183;-69
2023/09/20 02:51:48;;;;;;;2.88;2.20;;;36.30;1.00;;;;;;4973473;28;20179;-68
2023/09/20 02:54:17;;;;;;;4.85;2.65;;;36.50;1.00;;;;;;4973533;28;20251;-67
2023/09/20 02:56:45;;;;;;;9.77;2.65;;;35.90;1.00;;;;;;4973608;28;20665;-67
2023/09/20 02:59:13;;;;;;;6.95;3.13;;;36.00;1.00;;;;;;4973672;28;20202;-69
2023/09/20 03:01:40;;;;;;;12.93;2.97;;;36.60;1.00;;;;;;4973927;28;20175;-72
2023/09/20 03:04:08;;;;;;;10.85;2.70;;;36.70;1.00;;;;;;4973482;28;20175;-68
2023/09/20 03:06:35;;;;;;;22.65;3.03;;;36.40;1.00;;;;;;4975466;28;20638;-69
2023/09/20 03:09:03;;;;;;;13.65;2.65;;;36.70;1.00;;;;;;4977296;28;20364;-69
2023/09/20 03:11:31;;;;;;;11.15;3.22;;;36.80;1.00;;;;;;4976822;28;20265;-68
2023/09/20 03:13:58;;;;;;;9.80;2.53;;;36.40;1.00;;;;;;4959520;28;20645;-69
2023/09/20 03:16:27;;;;;;;6.10;3.00;;;36.20;1.00;;;;;;4977236;28;20175;-69
2023/09/20 03:18:55;;;;;;;10.48;3.28;;;36.00;1.00;;;;;;4976920;28;20179;-69
2023/09/20 03:21:23;;;;;;;13.43;3.13;;;36.20;1.00;;;;;;4976770;28;20278;-67
2023/09/20 03:23:50;;;;;;;10.60;3.33;;;36.00;1.00;;;;;;4976764;28;20183;-68
2023/09/20 03:26:18;;;;;;;8.70;2.90;;;35.90;1.00;;;;;;4976821;28;20262;-68
2023/09/20 03:28:46;;;;;;;21.25;3.60;;;36.10;1.00;;;;;;4976773;28;20557;-69
2023/09/20 03:31:15;;;;;;;11.93;3.55;;;36.10;1.00;;;;;;4976768;28;20744;-68
2023/09/20 03:33:43;;;;;;;6.47;2.65;;;35.80;1.00;;;;;;4975546;28;20187;-68
2023/09/20 03:39:46;;;;;;;9.73;2.97;;;35.90;1.00;;;;;;4977048;28;20282;-70
2023/09/20 03:42:13;;;;;;;9.40;3.13;;;35.80;1.00;;;;;;4976475;28;20177;-68
2023/09/20 03:44:41;;;;;;;9.32;3.13;;;35.60;1.00;;;;;;4976463;28;20183;-68
2023/09/20 03:47:09;;;;;;;8.00;2.92;;;35.30;1.00;;;;;;4976270;28;20180;-68
2023/09/20 03:49:36;;;;;;;9.50;2.92;;;35.80;1.00;;;;;;4976250;28;20175;-68
2023/09/20 03:52:04;;;;;;;8.80;3.22;;;35.90;1.00;;;;;;4976399;28;20183;-68
2023/09/20 03:54:31;;;;;;;15.40;2.90;;;36.00;1.00;;;;;;4974833;28;20273;-69
2023/09/20 03:56:59;;;;;;;11.38;2.92;;;36.00;1.00;;;;;;4976349;28;20191;-69
2023/09/20 03:59:26;;;;;;;11.52;2.78;;;35.80;1.00;;;;;;4976061;28;20203;-68
2023/09/20 04:01:54;;;;;;;6.78;3.15;;;35.90;1.00;;;;;;4976051;28;20191;-69
2023/09/20 04:04:21;;;;;;;9.30;3.55;;;36.00;1.00;;;;;;4976014;28;20194;-68
2023/09/20 04:06:49;;;;;;;10.73;2.92;;;36.00;1.00;;;;;;4975958;28;20668;-69
2023/09/20 04:09:17;;;;;;;19.02;3.20;;;35.70;1.00;;;;;;4975818;28;20258;-69
2023/09/20 04:11:44;;;;;;;12.32;3.08;;;35.60;1.00;;;;;;4975753;28;20239;-69
2023/09/20 04:14:12;;;;;;;19.23;3.45;;;35.50;1.00;;;;;;4975823;28;20258;-68
2023/09/20 04:16:42;;;;;;;5.65;2.85;;;35.30;1.00;;;;;;4975947;28;20190;-68
2023/09/20 04:19:09;;;;;;;6.18;2.83;;;35.30;1.00;;;;;;4975041;28;20199;-68
2023/09/20 04:21:37;;;;;;;12.98;3.78;;;35.40;1.00;;;;;;4975548;28;20211;-67
2023/09/20 04:24:05;;;;;;;9.95;2.95;;;35.70;1.00;;;;;;4975705;28;20538;-69
2023/09/20 04:26:33;;;;;;;6.18;2.70;;;35.60;1.00;;;;;;4975724;28;20594;-69
2023/09/20 04:29:00;;;;;;;4.18;2.92;;;35.50;1.00;;;;;;4975707;28;20191;-68
2023/09/20 04:31:28;;;;;;;6.05;3.08;;;35.60;1.00;;;;;;4975849;28;20234;-68
2023/09/20 04:33:56;;;;;;;16.27;3.35;;;35.60;1.00;;;;;;4975663;28;20278;-69
2023/09/20 04:39:50;;;;;;;15.48;3.75;;;35.60;1.00;;;;;;4974960;28;20257;-68
2023/09/20 04:42:17;;;;;;;13.40;3.28;;;35.50;1.00;;;;;;4975448;28;20183;-68
2023/09/20 04:44:44;;;;;;;7.32;3.30;;;35.60;1.00;;;;;;4975429;28;20250;-69
2023/09/20 04:47:14;;;;;;;11.13;2.70;;;35.60;1.00;;;;;;4975255;28;20182;-68
2023/09/20 04:49:42;;;;;;;4.28;2.80;;;35.60;1.00;;;;;;4975186;28;20225;-68
2023/09/20 04:52:10;;;;;;;11.50;3.20;;;35.70;1.00;;;;;;4957995;28;20671;-67
2023/09/20 04:54:38;;;;;;;10.68;3.10;;;35.60;1.00;;;;;;4975305;28;20167;-68
2023/09/20 04:57:13;;;;;;;6.82;3.05;;;35.50;1.00;;;;;;4974976;28;20188;-69
2023/09/20 04:59:40;;;;;;;5.88;3.25;;;35.60;1.00;;;;;;4974883;28;20343;-69
2023/09/20 05:02:08;;;;;;;8.65;3.20;;;35.50;1.00;;;;;;4974981;28;20179;-68
2023/09/20 05:04:36;;;;;;;13.95;3.20;;;35.60;1.00;;;;;;4975093;28;20180;-69
2023/09/20 05:07:07;;;;;;;30.75;4.35;;;35.50;1.00;;;;;;4975196;28;20664;-68
2023/09/20 05:09:35;;;;;;;11.48;3.03;;;35.30;1.00;;;;;;4975103;28;20191;-69
2023/09/20 05:12:03;;;;;;;15.35;3.42;;;35.20;1.00;;;;;;4974699;28;20227;-68
2023/09/20 05:14:31;;;;;;;13.80;2.83;;;35.40;1.00;;;;;;4975103;28;20175;-68
2023/09/20 05:16:59;;;;;;;8.98;3.22;;;35.40;1.00;;;;;;4975041;28;20649;-68
2023/09/20 05:19:27;;;;;;;7.68;3.22;;;35.20;1.00;;;;;;4974383;28;20301;-69
2023/09/20 05:21:55;;;;;;;8.43;3.35;;;35.10;1.00;;;;;;4974666;28;20242;-68
2023/09/20 05:24:23;;;;;;;9.43;3.40;;;34.80;1.00;;;;;;4974570;28;20179;-68
2023/09/20 05:26:51;;;;;;;11.85;3.65;;;34.70;1.00;;;;;;4974668;28;20263;-68
2023/09/20 05:29:18;;;;;;;5.25;2.80;;;34.90;1.00;;;;;;4973929;28;20168;-68
2023/09/20 05:31:48;;;;;;;11.18;3.42;;;34.70;1.00;;;;;;4974790;28;20262;-67
2023/09/20 05:34:16;;;;;;;8.98;3.08;;;34.40;1.00;;;;;;4974691;28;20296;-70
2023/09/20 05:36:45;;;;;;;6.50;3.15;;;34.10;1.00;;;;;;4974538;28;20211;-68
2023/09/20 05:39:13;;;;;;;6.45;3.25;;;34.10;1.00;;;;;;4973124;28;20190;-69
2023/09/20 05:41:41;;;;;;;12.23;4.03;;;34.10;1.00;;;;;;4974377;28;20214;-69
2023/09/20 05:44:10;;;;;;;9.85;3.17;;;34.00;1.00;;;;;;4974467;28;20195;-68
2023/09/20 05:50:01;;;;;;;7.63;3.70;;;34.20;1.00;;;;;;4974087;28;20238;-69
2023/09/20 05:52:29;;;;;;;7.78;3.13;;;34.20;1.00;;;;;;4974275;28;20250;-68
2023/09/20 05:54:56;;;;;;;10.02;3.50;;;34.40;1.00;;;;;;4974336;28;20308;-69
2023/09/20 05:57:27;;;;;;;6.15;2.90;;;34.50;1.00;;;;;;4974178;28;20183;-68
2023/09/20 05:59:56;;;;;;;8.32;3.50;;;34.30;1.00;;;;;;4974380;28;20210;-69
2023/09/20 06:02:24;;;;;;;6.68;3.28;;;34.30;1.00;;;;;;4974131;28;20194;-69
2023/09/20 06:04:52;;;;;;;6.32;3.40;;;34.30;1.00;;;;;;4973370;28;20195;-69
2023/09/20 06:07:20;;;;;;;7.78;2.83;;;34.30;1.00;;;;;;4974209;28;20704;-69
2023/09/20 06:09:47;;;;;;;8.70;2.97;;;34.30;1.00;;;;;;4972928;28;20207;-69
2023/09/20 06:12:15;;;;;;;8.70;3.35;;;34.40;1.00;;;;;;4973917;28;20601;-68
2023/09/20 06:14:43;;;;;;;4.05;3.00;;;34.40;1.00;;;;;;4974145;28;20181;-69
2023/09/20 06:17:11;;;;;;;6.57;3.42;;;34.40;1.00;;;;;;4974031;28;20179;-70
2023/09/20 06:19:39;;;;;;;13.02;3.58;;;34.30;1.00;;;;;;4974259;28;20230;-69
2023/09/20 06:22:07;;;;;;;16.27;3.25;;;34.30;1.00;;;;;;4973972;28;20588;-68
2023/09/20 06:24:34;;;;;;;3.50;3.00;;;34.20;1.00;;;;;;4974063;28;20270;-69
2023/09/20 06:27:03;;;;;;;10.30;3.72;;;34.10;1.00;;;;;;4974014;28;20182;-69
2023/09/20 06:29:34;;;;;;;5.30;3.00;;;34.20;1.00;;;;;;4974048;28;20178;-69
2023/09/20 06:32:50;;;;;;;5.82;3.13;;;34.10;1.00;;;;;;4973885;28;20176;-69
2023/09/20 06:35:20;;;;;;;4.30;3.10;;;34.00;1.00;;;;;;4956571;28;20191;-70
2023/09/20 06:37:51;;;;;;;7.38;3.25;;;34.00;1.00;;;;;;4973830;28;20250;-68
2023/09/20 06:40:33;;;;;;;7.40;2.92;;;34.00;1.00;;;;;;4973740;28;20226;-69
2023/09/20 06:43:01;;;;;;;12.02;3.10;;;33.90;1.00;;;;;;4960523;28;20270;-69
2023/09/20 06:45:30;;;;;;;6.30;3.33;;;33.90;1.00;;;;;;4977561;28;20186;-69
2023/09/20 06:47:57;;;;;;;5.30;2.90;;;33.70;1.00;;;;;;4976468;28;20183;-70
2023/09/20 06:50:25;;;;;;;7.82;3.20;;;33.60;1.00;;;;;;4959937;28;20225;-69
2023/09/20 06:52:54;;;;;;;7.65;3.33;;;33.40;1.00;;;;;;4977453;28;20530;-69
2023/09/20 06:55:25;;;;;;;5.03;3.60;;;33.10;1.00;;;;;;4977609;28;20211;-69
2023/09/20 06:57:53;;;;;;;7.70;3.08;;;33.00;1.00;;;;;;4977244;28;20345;-69
2023/09/20 07:00:28;;;;;;;7.07;3.35;;;33.00;1.00;;;;;;4977160;28;20241;-69
2023/09/20 07:02:56;;;;;;;12.40;3.40;;;32.90;1.00;;;;;;4977379;28;20206;-68
2023/09/20 07:05:28;;;;;;;9.15;4.13;;;32.90;1.00;;;;;;4959867;28;20183;-69
2023/09/20 07:07:58;;;;;;;6.35;2.97;;;32.80;1.00;;;;;;4977078;28;20171;-68
2023/09/20 07:10:27;;;;;;;8.93;3.30;;;32.70;1.00;;;;;;4977026;28;20656;-68
2023/09/20 07:12:55;;;;;;;5.05;2.85;;;32.70;1.00;;;;;;4976784;28;20226;-68
2023/09/20 07:15:28;;;;;;;4.30;3.15;;;32.60;1.00;;;;;;4977064;28;20175;-69
2023/09/20 07:18:01;;;;;;;6.05;2.75;;;32.50;1.00;;;;;;4977058;28;20172;-70
2023/09/20 07:20:33;;;;;;;7.10;3.13;;;32.40;1.00;;;;;;4977001;28;20218;-70
2023/09/20 07:23:01;;;;;;;13.55;3.63;;;32.20;1.00;;;;;;4977165;28;20179;-69
2023/09/20 07:25:29;;;;;;;6.38;3.50;;;32.00;1.00;;;;;;4977040;28;20649;-72
2023/09/20 07:28:00;;;;;;;5.82;4.00;;;31.90;1.00;;;;;;4976988;28;20720;-71
2023/09/20 07:30:31;;;;;;;6.10;3.17;;;31.80;1.00;;;;;;4975702;28;20187;-70
2023/09/20 07:33:03;;;;;;;7.35;3.17;;;31.80;1.00;;;;;;4976901;28;20188;-69
2023/09/20 07:35:48;;;;;;;10.90;3.50;;;31.70;1.00;;;;;;4959650;28;20218;-68
2023/09/20 07:38:36;;;;;;;3.72;3.28;;;31.60;1.00;;;;;;4976799;28;20249;-69
2023/09/20 07:41:08;;;;;;;6.00;3.17;;;31.50;1.00;;;;;;4976777;28;20223;-69
2023/09/20 07:43:41;;;;;;;8.82;3.05;;;31.40;1.00;;;;;;4976495;28;20645;-70
2023/09/20 07:46:09;;;;;;;7.13;3.65;;;31.30;1.00;;;;;;4976465;28;20184;-69
2023/09/20 07:48:38;;;;;;;7.70;3.20;;;31.30;1.00;;;;;;4976305;28;20207;-70
2023/09/20 07:51:10;;;;;;;8.07;3.33;;;31.10;1.00;;;;;;4959145;28;20222;-70
2023/09/20 07:57:00;;;;;;;8.13;3.20;;;30.80;1.00;;;;;;4975771;28;20233;-70
2023/09/20 07:59:30;;;;;;;7.80;3.45;;;30.60;1.00;;;;;;4976300;28;20180;-70
2023/09/20 08:02:00;;;;;;;6.57;3.47;;;30.50;1.00;;;;;;4976240;28;20218;-68
2023/09/20 08:04:37;;;;;;;4.28;3.25;;;30.20;1.00;;;;;;4976322;28;20180;-69
2023/09/20 08:07:06;;;;;;;11.57;3.55;;;30.00;1.00;;;;;;4958668;28;20636;-70
2023/09/20 08:09:34;;;;;;;14.10;6.03;;;29.70;1.00;;;;;;4976139;28;20198;-69
2023/09/20 08:12:18;;;;;;;6.32;4.18;;;29.40;1.00;;;;;;4975685;28;20235;-68
2023/09/20 08:14:46;;;;;;;6.85;3.83;;;29.40;1.00;;;;;;4975760;28;20175;-68
2023/09/20 08:20:38;;;;;;;7.53;4.00;;;29.80;1.00;;;;;;4916276;29;20231;-69
2023/09/20 09:02:25;;;;;;;10.10;3.77;;;27.60;1.00;;;;;;4975675;28;20270;-70
2023/09/20 09:04:54;;;;;;;10.53;3.00;;;28.00;1.00;;;;;;4975273;28;20265;-70
2023/09/20 09:07:24;;;;;;;10.57;3.90;;;28.10;1.00;;;;;;4975453;28;20262;-71
2023/09/20 09:09:53;;;;;;;6.90;4.00;;;28.10;1.00;;;;;;4957673;28;20179;-70
2023/09/20 09:12:24;;;;;;;6.67;3.67;;;28.20;1.00;;;;;;4974081;28;20231;-71
2023/09/20 09:14:52;;;;;;;11.00;3.43;;;28.20;1.00;;;;;;4975175;28;20179;-70
2023/09/20 09:17:19;;;;;;;8.90;3.40;;;28.20;1.00;;;;;;4975096;28;20222;-70
2023/09/20 09:19:47;;;;;;;10.77;3.07;;;28.10;1.00;;;;;;4973583;28;20215;-70
2023/09/20 09:22:16;;;;;;;5.37;3.30;;;28.20;1.00;;;;;;4975024;28;20305;-69
2023/09/20 09:24:46;;;;;;;7.07;3.63;;;28.20;1.00;;;;;;4974834;28;20703;-70
2023/09/20 09:27:15;;;;;;;4.93;3.50;;;28.40;1.00;;;;;;4957661;28;20266;-70
2023/09/20 09:29:45;;;;;;;7.63;3.33;;;28.60;1.00;;;;;;4974785;28;20724;-69
2023/09/20 09:32:13;;;;;;;5.33;3.37;;;28.50;1.00;;;;;;4974448;28;20677;-69
2023/09/20 09:34:43;;;;;;;6.40;3.50;;;28.30;1.00;;;;;;4974700;28;20187;-69
2023/09/20 09:37:12;;;;;;;5.70;3.03;;;28.20;1.00;;;;;;4974437;28;20183;-69
2023/09/20 09:39:41;;;;;;;5.70;3.10;;;28.00;1.00;;;;;;4974438;28;20199;-69
2023/09/20 09:42:09;;;;;;;7.13;3.83;;;27.80;1.00;;;;;;4974689;28;20662;-69
2023/09/20 09:44:51;;;;;;;4.20;3.27;;;27.70;1.00;;;;;;4974433;28;20183;-68
2023/09/20 09:47:19;;;;;;;6.57;3.37;;;27.60;1.00;;;;;;4974592;28;20199;-70
2023/09/20 09:49:55;;;;;;;6.33;3.77;;;27.60;1.00;;;;;;4974443;28;20187;-70
2023/09/20 09:52:31;;;;;;;7.37;3.20;;;27.60;1.00;;;;;;4973501;28;20253;-70
2023/09/20 09:55:00;;;;;;;9.33;3.87;;;27.60;1.00;;;;;;4974414;28;20172;-70
2023/09/20 09:57:32;;;;;;;8.00;3.50;;;27.40;1.00;;;;;;4974247;28;20183;-69
2023/09/20 10:00:01;;;;;;;6.47;3.10;;;27.30;1.00;;;;;;4957050;28;20207;-69
2023/09/20 10:02:32;;;;;;;7.13;3.50;;;27.30;1.00;;;;;;4974403;28;20187;-69
2023/09/20 10:05:04;;;;;;;7.93;3.93;;;27.20;1.00;;;;;;4974333;28;20262;-69
2023/09/20 10:07:47;;;;;;;6.43;3.60;;;27.10;1.00;;;;;;4973032;28;20187;-70
2023/09/20 10:10:22;;;;;;;11.23;3.70;;;27.20;1.00;;;;;;4974558;28;20179;-70
2023/09/20 10:12:51;;;;;;;5.37;3.40;;;27.20;1.00;;;;;;4974179;28;20241;-70
2023/09/20 10:15:21;;;;;;;7.27;3.40;;;27.30;1.00;;;;;;4974420;28;20175;-69
2023/09/20 10:17:55;;;;;;;6.70;3.70;;;27.20;1.00;;;;;;4976949;28;20281;-69
2023/09/20 10:20:23;;;;;;;9.73;3.83;;;27.20;1.00;;;;;;4977884;28;20221;-69
2023/09/20 10:22:53;;;;;;;18.67;3.93;;;27.00;1.00;;;;;;4978114;28;20186;-70
2023/09/20 10:25:34;;;;;;;7.80;3.77;;;26.90;1.00;;;;;;4978186;28;20179;-70
2023/09/20 10:28:16;;;;;;;12.57;4.13;;;26.80;1.00;;;;;;4960741;28;20571;-69
2023/09/20 10:31:05;;;;;;;12.60;3.77;;;26.70;1.00;;;;;;4977873;28;20237;-68
2023/09/20 10:33:45;;;;;;;9.53;3.60;;;26.50;1.00;;;;;;4960537;28;20183;-70
2023/09/20 10:36:22;;;;;;;10.67;4.17;;;26.40;1.00;;;;;;4977081;28;20191;-69
2023/09/20 10:39:20;;;;;;;9.70;3.63;;;26.30;1.00;;;;;;4977795;28;20199;-69
2023/09/20 10:41:50;;;;;;;9.17;3.93;;;26.30;1.00;;;;;;4977763;28;20563;-68
2023/09/20 10:44:31;;;;;;;7.63;3.50;;;26.10;1.00;;;;;;4977839;28;20171;-69
2023/09/20 10:47:04;;;;;;;8.00;3.40;;;26.00;1.00;;;;;;4976982;28;20575;-69
2023/09/20 10:49:49;;;;;;;4.63;3.47;;;25.90;1.00;;;;;;4977722;28;20675;-69
2023/09/20 10:52:37;;;;;;;9.93;3.57;;;25.70;1.00;;;;;;4978027;28;20218;-68
2023/09/20 10:55:18;;;;;;;6.07;3.43;;;25.50;1.00;;;;;;4960194;28;20230;-69
2023/09/20 10:57:51;;;;;;;5.73;3.90;;;25.40;1.90;;;;;;4977482;28;20189;-69
2023/09/20 11:00:25;;;;;;;5.73;3.80;;;25.30;1.40;;;;;;4976560;28;20222;-69
2023/09/20 11:02:59;;;;;;;9.63;3.70;;;25.20;1.40;;;;;;4977510;28;20191;-69
2023/09/20 11:05:28;;;;;;;7.00;3.93;;;25.00;3.50;;;;;;4977118;28;20183;-69
2023/09/20 11:07:57;;;;;;;7.47;4.27;;;24.90;3.30;;;;;;4959213;28;20217;-69
2023/09/20 11:13:51;;;;;;;5.53;3.90;;;24.60;5.50;;;;;;4975830;28;20234;-67
2023/09/20 11:16:22;;;;;;;7.37;4.10;;;24.40;4.60;;;;;;4977712;28;20175;-68
2023/09/20 11:18:50;;;;;;;10.10;4.27;;;24.20;5.40;;;;;;4977182;28;20183;-68
2023/09/20 11:21:19;;;;;;;6.87;4.37;;;24.20;6.00;;;;;;4977059;28;20574;-68
2023/09/20 11:23:49;;;;;;;7.60;4.03;;;24.00;8.10;;;;;;4976528;28;20183;-71
2023/09/20 11:26:39;;;;;;;5.80;3.90;;;23.90;8.40;;;;;;4959809;28;20245;-69
2023/09/20 11:29:12;;;;;;;7.97;4.10;;;23.80;8.60;;;;;;4977215;28;20171;-69
2023/09/20 11:31:55;;;;;;;4.67;3.70;;;23.90;8.60;;;;;;4976859;28;20195;-68
2023/09/20 11:34:25;;;;;;;6.13;4.27;;;24.00;7.20;;;;;;4974665;28;20559;-68
2023/09/20 11:36:54;;;;;;;10.50;4.17;;;24.20;7.50;;;;;;4959336;28;20668;-69
2023/09/20 11:39:31;;;;;;;9.60;3.47;;;24.20;7.70;;;;;;4976187;28;20217;-68
2023/09/20 11:42:20;;;;;;;7.70;3.83;;;24.60;6.60;;;;;;4976552;28;20586;-68
2023/09/20 11:45:01;;;;;;;7.43;3.50;;;24.90;6.50;;;;;;4959683;28;20191;-69
2023/09/20 11:47:34;;;;;;;6.40;3.70;;;25.20;6.30;;;;;;4976683;28;20537;-69
2023/09/20 11:50:05;;;;;;;4.03;2.87;;;25.30;6.40;;;;;;4976492;28;20189;-68
2023/09/20 11:52:37;;;;;;;5.77;3.60;;;25.20;7.70;;;;;;4976477;28;20179;-69
2023/09/20 11:55:11;;;;;;;4.33;3.50;;;25.20;7.00;;;;;;4976567;28;20183;-69
2023/09/20 11:57:41;;;;;;;9.60;3.57;;;25.20;6.40;;;;;;4959192;28;20190;-69
2023/09/20 12:00:16;;;;;;;6.10;3.40;;;25.10;6.40;;;;;;4958917;28;20211;-68
2023/09/20 12:02:45;;;;;;;7.53;3.53;;;25.00;6.70;;;;;;4976404;28;20565;-69
2023/09/20 12:05:17;;;;;;;8.87;3.90;;;24.90;8.70;;;;;;4975848;28;20211;-67
2023/09/20 12:07:56;;;;;;;6.53;3.87;;;24.80;8.30;;;;;;4976293;28;20630;-69
2023/09/20 12:10:29;;;;;;;4.90;3.77;;;24.70;8.70;;;;;;4976351;28;20546;-68
2023/09/20 12:13:03;;;;;;;10.33;4.20;;;24.60;10.50;;;;;;4976038;28;20191;-69
2023/09/20 12:15:32;;;;;;;7.97;4.50;;;24.50;9.90;;;;;;4976331;28;20195;-70
2023/09/20 12:18:03;;;;;;;4.60;3.70;;;24.30;10.00;;;;;;4976369;28;20211;-69
2023/09/20 12:20:31;;;;;;;7.50;4.00;;;24.20;10.30;;;;;;4976032;28;20230;-69
2023/09/20 12:23:01;;;;;;;6.47;3.40;;;24.00;11.50;;;;;;4976602;28;20529;-68
2023/09/20 12:25:30;;;;;;;5.97;3.50;;;23.70;13.20;;;;;;4976172;28;20214;-69
2023/09/20 12:28:00;;;;;;;5.13;3.73;;;23.50;13.60;;;;;;4975988;28;20180;-68
2023/09/20 12:30:31;;;;;;;8.63;4.00;;;23.40;14.40;;;;;;4976147;28;20649;-69
2023/09/20 12:33:00;;;;;;;7.53;3.93;;;23.30;16.70;;;;;;4974553;28;20188;-67
2023/09/20 12:35:28;;;;;;;8.50;4.03;;;23.10;16.40;;;;;;4975349;28;20195;-69
2023/09/20 12:38:00;;;;;;;6.77;3.67;;;23.00;17.10;;;;;;4975808;28;20233;-69
2023/09/20 12:40:29;;;;;;;9.60;4.00;;;22.80;17.20;;;;;;4975122;28;20277;-68
2023/09/20 12:43:01;;;;;;;8.40;4.00;;;22.80;18.00;;;;;;4975715;28;20179;-69
2023/09/20 12:45:29;;;;;;;6.50;3.83;;;22.70;19.60;;;;;;4975729;28;20198;-69
2023/09/20 12:47:57;;;;;;;7.43;4.27;;;22.60;20.30;;;;;;4958229;28;20187;-69
2023/09/20 12:50:25;;;;;;;9.33;4.37;;;22.50;21.50;;;;;;4958220;28;20183;-69
2023/09/20 12:52:54;;;;;;;9.00;4.33;;;22.50;20.60;;;;;;4976305;28;20548;-70
2023/09/20 12:55:22;;;;;;;16.00;5.03;;;22.80;25.40;;;;;;4975510;28;20214;-69
2023/09/20 12:57:50;;;;;;;21.20;5.90;;;22.90;69.10;;;;;;4975412;28;20171;-69
2023/09/20 13:00:21;;;;;;;28.00;6.10;;;22.80;99.90;;;;;;4974276;28;20569;-68
2023/09/20 13:02:50;;;;;;;23.07;6.20;;;22.60;99.90;;;;;;4975369;28;20513;-69
2023/09/20 13:05:22;;;;;;;23.67;6.07;;;22.30;99.90;;;;;;4975246;28;20182;-69
2023/09/20 13:07:51;;;;;;;24.43;6.30;;;22.20;99.90;;;;;;4975045;28;20191;-69
2023/09/20 13:10:20;;;;;;;35.70;6.40;;;21.90;99.90;;;;;;4974942;28;20545;-71
2023/09/20 13:12:48;;;;;;;20.50;5.83;;;21.60;99.90;;;;;;4974735;28;20176;-70
2023/09/20 13:15:17;;;;;;;23.60;6.77;;;21.30;99.90;;;;;;4974013;28;20254;-70
2023/09/20 13:17:52;;;;;;;36.60;7.33;;;21.10;99.90;;;;;;4974828;28;20186;-68
2023/09/20 13:20:46;;;;;;;34.03;6.20;;;21.00;99.90;;;;;;4973344;28;20225;-69
2023/09/20 13:23:14;;;;;;;34.23;6.43;;;20.80;99.90;;;;;;4975079;28;20691;-68
2023/09/20 13:25:42;;;;;;;33.63;6.33;;;20.60;99.90;;;;;;4974933;28;20191;-69
2023/09/20 13:28:13;;;;;;;22.20;6.03;;;20.50;99.90;;;;;;4974911;28;20179;-70
2023/09/20 13:30:45;;;;;;;31.97;7.13;;;20.40;99.90;;;;;;4975028;28;20184;-69
2023/09/20 13:33:14;;;;;;;27.07;6.27;;;20.30;99.90;;;;;;4974805;28;20178;-68
2023/09/20 13:35:42;;;;;;;25.40;6.83;;;20.20;99.90;;;;;;4974737;28;20185;-69
2023/09/20 13:38:32;;;;;;;34.13;7.07;;;20.10;99.90;;;;;;4974577;28;20184;-69
2023/09/20 13:41:07;;;;;;;31.57;7.37;;;19.90;99.90;;;;;;4958108;28;20250;-71
2023/09/20 13:43:35;;;;;;;33.00;6.60;;;19.80;99.90;;;;;;4973720;28;20241;-69
2023/09/20 13:46:03;;;;;;;36.67;6.63;;;19.70;99.90;;;;;;4974798;28;20644;-68
2023/09/20 13:48:34;;;;;;;35.03;6.67;;;19.70;99.90;;;;;;4974284;28;20194;-70
2023/09/20 13:51:01;;;;;;;34.53;6.00;;;19.60;99.90;;;;;;4973895;28;20542;-68
2023/09/20 13:53:29;;;;;;;25.70;6.43;;;19.50;99.90;;;;;;4974491;28;20175;-69
2023/09/20 13:56:04;;;;;;;29.67;6.43;;;19.30;99.90;;;;;;4974598;28;20230;-70
2023/09/20 13:58:35;;;;;;;26.50;5.80;;;19.30;99.90;;;;;;4973997;28;20191;-69
2023/09/20 14:01:05;;;;;;;42.10;6.80;;;19.20;99.90;;;;;;4973233;28;20219;-70
2023/09/20 14:03:37;;;;;;;31.97;6.27;;;19.10;99.90;;;;;;4974489;28;20210;-70
2023/09/20 14:06:08;;;;;;;35.53;7.23;;;19.00;99.90;;;;;;4974650;28;20186;-70
2023/09/20 14:08:36;;;;;;;26.37;6.97;;;19.00;99.90;;;;;;4974636;28;20179;-68
2023/09/20 14:11:07;;;;;;;39.77;6.87;;;18.90;99.90;;;;;;4974436;28;20184;-70
2023/09/20 14:13:34;;;;;;;26.90;5.93;;;18.90;99.90;;;;;;4973838;28;20277;-68
2023/09/20 14:16:04;;;;;;;35.20;6.33;;;18.90;99.90;;;;;;4974900;28;20712;-69
2023/09/20 14:18:32;;;;;;;26.90;6.47;;;18.90;99.90;;;;;;4974481;28;20700;-68